Time;durP1;ratioP1;P1;durP2;ratioP2;P2;SDS_P1;SDS_P2;PMS_P1;PMS_P2;Temp;Humidity;BMP_temperature;BMP_pressure;BME280_temperature;BME280_humidity;BME280_pressure;Samples;Min_cycle;Max_cycle;Signal;HPM_P1;HPM_P2
2024/01/30 00:02:20;;;;;;;;;;;;;;;-0.50;74.05;102413.29;106306;1292;58203;-56
2024/01/30 00:05:06;;;;;;;;;;;;;;;-0.55;74.11;102410.66;106362;1289;58780;-57
2024/01/30 00:07:52;;;;;;;37.40;19.10;;;;;;;-0.59;74.16;102406.88;106243;1292;72427;-56
2024/01/30 00:10:38;;;;;;;52.40;23.60;;;;;;;-0.64;74.00;102408.45;106222;1290;67193;-57
2024/01/30 00:13:23;;;;;;;51.40;24.60;;;;;;;-0.68;74.13;102405.85;106276;1288;72693;-58
2024/01/30 00:16:26;;;;;;;47.60;23.10;;;;;;;-0.71;74.25;102405.55;106248;1288;58280;-56
2024/01/30 00:19:12;;;;;;;46.60;23.50;;;;;;;-0.71;74.06;102403.50;106342;1289;58784;-57
2024/01/30 00:21:58;;;;;;;43.30;22.00;;;;;;;-0.69;74.27;102403.29;106332;1288;72486;-57
2024/01/30 00:24:44;;;;;;;46.80;22.70;;;;;;;-0.70;74.50;102401.89;106320;1289;67553;-57
2024/01/30 00:27:30;;;;;;;50.60;21.80;;;;;;;-0.69;74.77;102405.64;106194;1288;71897;-57
2024/01/30 00:30:16;;;;;;;45.70;21.60;;;;;;;-0.69;74.46;102409.73;106228;1290;58423;-58
2024/01/30 00:33:02;;;;;;;45.70;22.40;;;;;;;-0.70;74.43;102407.25;106235;1288;59333;-57
2024/01/30 00:35:48;;;;;;;;;;;;;;;-0.72;74.41;102409.70;106316;1288;73674;-58
2024/01/30 00:38:34;;;;;;;;;;;;;;;-0.76;74.44;102408.27;106285;1289;67495;-57
2024/01/30 00:41:20;;;;;;;;;;;;;;;-0.79;74.51;102409.76;106280;1288;72343;-57
2024/01/30 00:44:06;;;;;;;47.50;21.60;;;;;;;-0.84;74.45;102408.77;106299;1288;58151;-58
2024/01/30 00:46:52;;;;;;;49.60;21.20;;;;;;;-0.88;74.29;102405.16;105428;1288;60407;-56
2024/01/30 00:49:38;;;;;;;;;;;;;;;-0.92;74.28;102404.45;104984;1288;76394;-56
2024/01/30 00:52:25;;;;;;;58.50;24.50;;;;;;;-0.96;74.58;102404.55;105083;1289;67981;-57
2024/01/30 00:55:11;;;;;;;;;;;;;;;-1.02;74.37;102406.56;105064;1289;71235;-57
2024/01/30 00:57:57;;;;;;;48.40;23.20;;;;;;;-1.05;74.67;102403.73;105043;1289;60497;-56
2024/01/30 01:00:43;;;;;;;;;;;;;;;-1.08;74.72;102402.67;105023;1289;60340;-57
2024/01/30 01:03:29;;;;;;;57.00;27.30;;;;;;;-1.13;74.42;102400.19;105130;1292;72876;-56
2024/01/30 01:06:15;;;;;;;;;;;;;;;-1.16;74.72;102396.41;104962;1289;69967;-54
2024/01/30 01:09:03;;;;;;;61.20;27.40;;;;;;;-1.21;74.44;102399.36;104990;1292;71346;-56
2024/01/30 01:11:49;;;;;;;60.20;28.30;;;;;;;-1.23;74.50;102400.27;104949;1293;61071;-56
2024/01/30 01:14:36;;;;;;;;;;;;;;;-1.25;74.67;102399.41;105030;1289;60386;-56
2024/01/30 01:17:22;;;;;;;54.20;26.70;;;;;;;-1.27;74.88;102399.97;104983;1289;75441;-55
2024/01/30 01:20:10;;;;;;;;;;;;;;;-1.31;74.21;102398.05;105050;1289;67299;-54
2024/01/30 01:22:56;;;;;;;49.90;24.60;;;;;;;-1.33;74.83;102398.42;104762;1293;383660;-55
2024/01/30 01:25:44;;;;;;;;;;;;;;;-1.36;74.68;102399.29;104960;1289;60482;-57
2024/01/30 01:28:30;;;;;;;50.30;22.90;;;;;;;-1.34;75.36;102398.91;106205;1289;59522;-56
2024/01/30 01:31:17;;;;;;;51.40;23.70;;;;;;;-1.35;75.05;102396.83;106258;1289;73595;-57
2024/01/30 01:34:03;;;;;;;47.20;23.00;;;;;;;-1.35;75.17;102396.83;106225;1292;69070;-58
2024/01/30 01:36:49;;;;;;;41.20;22.60;;;;;;;-1.36;74.99;102396.11;106288;1289;73121;-58
2024/01/30 01:39:35;;;;;;;42.20;20.30;;;;;;;-1.37;74.96;102397.18;106215;1291;58379;-58
2024/01/30 01:42:22;;;;;;;44.40;22.40;;;;;;;-1.36;75.08;102396.41;106208;1289;58804;-57
2024/01/30 01:45:08;;;;;;;46.60;22.10;;;;;;;-1.35;75.22;102396.63;106234;1289;72550;-57
2024/01/30 01:47:54;;;;;;;;;;;;;;;-1.34;75.15;102398.71;106269;1288;68682;-57
2024/01/30 01:50:42;;;;;;;43.90;19.80;;;;;;;-1.32;75.42;102397.64;106198;1289;71869;-57
2024/01/30 01:53:28;;;;;;;45.80;20.30;;;;;;;-1.32;75.08;102400.33;106181;1289;58566;-58
2024/01/30 01:56:14;;;;;;;;;;;;;;;-1.35;74.94;102400.91;106212;1290;58845;-58
2024/01/30 01:59:06;;;;;;;40.40;19.20;;;;;;;-1.36;75.21;102396.27;106222;1294;72892;-57
2024/01/30 02:01:53;;;;;;;41.60;19.90;;;;;;;-1.38;75.09;102395.64;106221;1289;67511;-58
2024/01/30 02:04:39;;;;;;;38.00;19.70;;;;;;;-1.38;75.21;102389.85;106261;1289;71358;-58
2024/01/30 02:07:26;;;;;;;43.90;20.00;;;;;;;-1.38;75.00;102393.75;106177;1291;58440;-58
2024/01/30 02:10:12;;;;;;;38.10;18.80;;;;;;;-1.37;75.19;102392.95;106247;1289;58793;-57
2024/01/30 02:12:58;;;;;;;43.00;20.40;;;;;;;-1.38;75.24;102390.22;106236;1289;73179;-57
2024/01/30 02:15:50;;;;;;;35.40;19.30;;;;;;;-1.38;75.24;102385.96;106225;1294;68528;-58
2024/01/30 02:18:41;;;;;;;46.00;20.50;;;;;;;-1.42;75.08;102386.09;106215;1293;70748;-57
2024/01/30 02:21:27;;;;;;;42.10;20.40;;;;;;;-1.45;75.18;102385.19;106186;1290;58357;-57
2024/01/30 02:24:13;;;;;;;;;;;;;;;-1.48;75.10;102380.47;106226;1289;58889;-58
2024/01/30 02:26:59;;;;;;;37.10;19.00;;;;;;;-1.46;75.19;102384.13;106215;1289;71331;-57
2024/01/30 02:29:45;;;;;;;39.10;18.80;;;;;;;-1.45;75.14;102379.27;106203;1289;69022;-58
2024/01/30 02:32:31;;;;;;;38.90;19.50;;;;;;;-1.44;75.54;102374.95;106173;1290;71381;-58
2024/01/30 02:35:17;;;;;;;43.80;19.90;;;;;;;-1.38;75.45;102378.73;106207;1289;58525;-58
2024/01/30 02:38:04;;;;;;;40.60;19.10;;;;;;;-1.30;76.59;102375.80;106255;1289;58435;-57
2024/01/30 02:40:50;;;;;;;41.00;19.20;;;;;;;-1.15;77.01;102380.40;106060;1289;72252;-58
2024/01/30 02:43:36;;;;;;;40.60;18.30;;;;;;;-1.01;76.20;102382.08;106228;1289;67198;-57
2024/01/30 02:46:22;;;;;;;38.20;18.30;;;;;;;-0.93;76.94;102378.98;106208;1291;71323;-58
2024/01/30 02:49:08;;;;;;;48.20;19.10;;;;;;;-0.78;76.52;102378.52;105050;1293;60578;-57
2024/01/30 02:51:55;;;;;;;;;;;;;;;-0.66;76.50;102374.45;105017;1289;62939;-56
2024/01/30 02:54:41;;;;;;;39.70;17.70;;;;;;;-0.55;76.02;102371.39;105002;1292;71631;-55
2024/01/30 02:57:27;;;;;;;;;;;;;;;-0.46;76.54;102363.08;105025;1289;70830;-57
2024/01/30 03:00:14;;;;;;;36.10;17.30;;;;;;;-0.38;76.32;102366.27;104960;1289;74448;-57
2024/01/30 03:03:00;;;;;;;34.80;16.50;;;;;;;-0.34;75.90;102358.84;106201;1292;58262;-57
2024/01/30 03:05:46;;;;;;;35.70;16.90;;;;;;;-0.27;76.13;102360.94;106182;1290;58914;-58
2024/01/30 03:08:34;;;;;;;40.30;18.20;;;;;;;-0.19;76.61;102359.50;106225;1289;72325;-58
2024/01/30 03:11:20;;;;;;;37.40;18.20;;;;;;;-0.11;76.19;102357.80;106247;1289;68618;-58
2024/01/30 03:14:06;;;;;;;36.10;17.00;;;;;;;-0.04;76.02;102361.90;106217;1289;72268;-57
2024/01/30 03:16:52;;;;;;;35.80;16.60;;;;;;;0.01;76.14;102357.55;106205;1289;58492;-58
2024/01/30 03:19:38;;;;;;;31.70;17.70;;;;;;;0.00;76.43;102362.27;106268;1289;58851;-57
2024/01/30 03:22:24;;;;;;;35.60;18.20;;;;;;;0.06;76.97;102365.10;106202;1289;73615;-58
2024/01/30 03:25:10;;;;;;;50.40;17.70;;;;;;;0.11;76.99;102362.00;106172;1289;67343;-57
2024/01/30 03:27:56;;;;;;;35.30;17.80;;;;;;;0.17;76.71;102359.27;106172;1288;72251;-57
2024/01/30 03:30:42;;;;;;;34.80;16.50;;;;;;;0.20;76.61;102356.55;106189;1289;58453;-58
2024/01/30 03:33:28;;;;;;;38.20;17.10;;;;;;;0.22;76.21;102362.09;106219;1289;59058;-58
2024/01/30 03:36:15;;;;;;;37.50;17.10;;;;;;;0.20;76.20;102358.75;106243;1289;73639;-58
2024/01/30 03:39:02;;;;;;;29.10;16.20;;;;;;;0.18;76.02;102357.28;106169;1288;68339;-58
2024/01/30 03:41:47;;;;;;;;;;;;;;;0.17;76.20;102353.98;106241;1289;71805;-58
2024/01/30 03:44:33;;;;;;;;;;;;;;;0.18;76.93;102356.77;106272;1289;58437;-58
2024/01/30 03:47:20;;;;;;;;;;;;;;;0.22;76.56;102355.30;106237;1289;60626;-57
2024/01/30 03:50:06;;;;;;;34.70;16.20;;;;;;;0.24;77.09;102356.09;106215;1289;72352;-57
2024/01/30 03:52:52;;;;;;;38.00;17.50;;;;;;;0.27;77.21;102352.02;106198;1294;68497;-58
2024/01/30 03:55:38;;;;;;;35.40;16.00;;;;;;;0.30;76.95;102353.89;106211;1289;72286;-57
2024/01/30 03:58:24;;;;;;;33.80;16.90;;;;;;;0.34;76.56;102357.84;106196;1289;58388;-58
2024/01/30 04:01:14;;;;;;;37.90;17.90;;;;;;;0.35;76.79;102360.06;106217;1288;58952;-58
2024/01/30 04:04:00;;;;;;;29.80;16.50;;;;;;;0.38;76.84;102359.38;106234;1289;71680;-58
2024/01/30 04:06:47;;;;;;;38.30;17.30;;;;;;;0.41;76.95;102356.98;106230;1289;67373;-58
2024/01/30 04:09:32;;;;;;;;;;;;;;;0.45;77.43;102359.59;106249;1289;72295;-58
2024/01/30 04:12:18;;;;;;;34.50;17.20;;;;;;;0.50;76.77;102357.46;106126;1289;57554;-58
2024/01/30 04:15:05;;;;;;;34.60;17.20;;;;;;;0.50;76.82;102357.32;106194;1289;59107;-58
2024/01/30 04:17:51;;;;;;;;;;;;;;;0.51;76.75;102355.16;106196;1290;72972;-58
2024/01/30 04:20:37;;;;;;;32.30;15.70;;;;;;;0.52;77.47;102354.54;106147;1291;67342;-57
2024/01/30 04:23:23;;;;;;;35.10;16.00;;;;;;;0.54;76.76;102362.08;84044;1289;10001421;-58
2024/01/30 04:26:09;;;;;;;31.50;15.30;;;;;;;0.54;76.78;102363.08;106099;1289;71701;-58
2024/01/30 04:28:55;;;;;;;35.50;17.30;;;;;;;0.53;76.88;102364.23;106026;1289;57868;-57
2024/01/30 04:31:41;;;;;;;;;;;;;;;0.53;76.85;102362.87;104940;1290;61553;-56
2024/01/30 04:34:27;;;;;;;30.80;15.30;;;;;;;0.56;76.85;102359.64;104881;1294;75751;-57
2024/01/30 04:37:13;;;;;;;29.30;15.20;;;;;;;0.56;77.68;102360.84;104875;1290;67761;-55
2024/01/30 04:39:59;;;;;;;;;;;;;;;0.57;77.26;102360.02;104913;1290;75385;-56
2024/01/30 04:42:45;;;;;;;30.80;16.10;;;;;;;0.58;76.85;102360.77;104951;1290;63017;-57
2024/01/30 04:45:32;;;;;;;38.50;16.70;;;;;;;0.57;77.10;102359.20;104869;1289;60233;-56
2024/01/30 04:48:18;;;;;;;30.90;14.90;;;;;;;0.56;77.74;102355.75;104881;1289;72439;-57
2024/01/30 04:51:04;;;;;;;;;;;;;;;0.59;77.69;102358.59;104854;1291;69757;-57
2024/01/30 04:53:50;;;;;;;32.20;15.10;;;;;;;0.60;77.86;102360.71;104883;1289;71745;-55
2024/01/30 04:56:37;;;;;;;;;;;;;;;0.63;78.59;102353.73;104906;1289;60615;-57
2024/01/30 04:59:23;;;;;;;26.30;14.60;;;;;;;0.64;77.92;102360.92;104967;1293;61478;-57
2024/01/30 05:02:09;;;;;;;31.80;16.00;;;;;;;0.62;77.85;102366.71;104910;1289;72407;-55
2024/01/30 05:04:56;;;;;;;28.90;15.60;;;;;;;0.59;78.22;102367.62;104920;1290;66327;-53
2024/01/30 05:07:42;;;;;;;32.20;15.90;;;;;;;0.60;77.30;102370.73;104919;1289;71239;-55
2024/01/30 05:10:29;;;;;;;30.10;15.80;;;;;;;0.60;78.07;102374.63;104905;1290;60424;-54
2024/01/30 05:13:15;;;;;;;28.50;16.20;;;;;;;0.61;78.29;102378.09;104922;1291;62880;-57
2024/01/30 05:16:03;;;;;;;29.70;15.80;;;;;;;0.63;78.11;102379.89;104946;1289;72416;-56
2024/01/30 05:18:49;;;;;;;37.00;16.30;;;;;;;0.65;78.25;102372.52;105444;1289;67189;-56
2024/01/30 05:21:35;;;;;;;30.70;15.20;;;;;;;0.67;78.00;102371.56;104894;1289;71454;-57
2024/01/30 05:24:21;;;;;;;27.10;15.10;;;;;;;0.67;77.32;102372.10;104936;1291;61500;-56
2024/01/30 05:27:08;;;;;;;27.00;13.90;;;;;;;0.67;77.38;102372.43;104978;1289;60004;-57
2024/01/30 05:29:54;;;;;;;33.30;14.90;;;;;;;0.65;77.50;102374.56;104891;1294;71872;-56
2024/01/30 05:32:40;;;;;;;;;;;;;;;0.64;77.27;102374.86;104864;1291;69996;-56
2024/01/30 05:35:26;;;;;;;31.00;14.90;;;;;;;0.66;77.41;102374.92;104847;1292;72282;-53
2024/01/30 05:38:13;;;;;;;28.70;13.50;;;;;;;0.67;77.60;102374.11;104950;1289;60487;-57
2024/01/30 05:40:59;;;;;;;31.00;15.90;;;;;;;0.66;77.57;102370.20;105020;1290;60351;-56
2024/01/30 05:43:45;;;;;;;29.20;15.20;;;;;;;0.66;77.22;102372.20;104733;1290;72375;-57
2024/01/30 05:46:33;;;;;;;;;;;;;;;0.65;77.52;102371.14;104896;1289;68345;-54
2024/01/30 05:49:20;;;;;;;30.70;14.50;;;;;;;0.66;77.31;102369.83;104946;1292;71431;-53
2024/01/30 05:52:06;;;;;;;29.60;15.50;;;;;;;0.64;77.35;102370.75;104974;1291;60309;-57
2024/01/30 05:54:52;;;;;;;31.20;14.80;;;;;;;0.63;77.24;102371.57;105002;1288;60331;-56
2024/01/30 05:57:38;;;;;;;28.50;15.20;;;;;;;0.64;77.98;102371.59;104943;1290;72384;-56
2024/01/30 06:00:25;;;;;;;27.80;14.60;;;;;;;0.65;78.14;102367.05;104946;1291;69390;-57
2024/01/30 06:03:11;;;;;;;;;;;;;;;0.65;77.56;102368.64;104985;1289;71266;-57
2024/01/30 06:05:57;;;;;;;24.60;12.90;;;;;;;0.67;78.72;102366.83;104868;1291;60464;-56
2024/01/30 06:08:44;;;;;;;28.90;15.10;;;;;;;0.71;77.99;102366.86;104815;1289;62861;-57
2024/01/30 06:11:30;;;;;;;36.40;16.30;;;;;;;0.73;78.69;102369.16;104917;1293;77962;-56
2024/01/30 06:14:16;;;;;;;31.10;15.10;;;;;;;0.78;78.64;102369.75;105005;1288;67401;-55
2024/01/30 06:17:03;;;;;;;;;;;;;;;0.80;78.01;102369.39;104974;1290;72437;-57
2024/01/30 06:19:49;;;;;;;28.50;14.80;;;;;;;0.82;78.06;102371.87;104889;1290;60521;-57
2024/01/30 06:22:36;;;;;;;25.60;14.40;;;;;;;0.83;77.73;102367.98;104927;1289;60421;-56
2024/01/30 06:25:22;;;;;;;;;;;;;;;0.84;77.76;102367.02;104942;1293;75211;-54
2024/01/30 06:28:08;;;;;;;30.70;15.20;;;;;;;0.84;77.80;102366.16;104883;1291;70038;-57
2024/01/30 06:30:54;;;;;;;;;;;;;;;0.83;77.86;102367.00;104965;1291;71236;-57
2024/01/30 06:33:42;;;;;;;31.60;15.90;;;;;;;0.84;78.16;102366.20;104912;1289;60388;-57
2024/01/30 06:36:28;;;;;;;33.50;15.20;;;;;;;0.82;78.27;102368.29;104867;1289;61661;-56
2024/01/30 06:39:14;;;;;;;30.10;15.40;;;;;;;0.82;77.90;102370.34;104944;1290;73041;-57
2024/01/30 06:42:01;;;;;;;30.00;15.90;;;;;;;0.80;77.67;102363.11;105008;1289;67301;-56
2024/01/30 06:44:47;;;;;;;32.70;16.00;;;;;;;0.78;78.35;102364.02;105007;1290;73954;-57
2024/01/30 06:47:33;;;;;;;28.00;15.60;;;;;;;0.79;77.92;102364.39;104897;1291;60679;-56
2024/01/30 06:50:20;;;;;;;33.40;15.10;;;;;;;0.78;77.96;102362.96;104946;1289;59272;-56
2024/01/30 06:53:06;;;;;;;30.00;16.30;;;;;;;0.75;77.65;102366.23;104978;1290;72274;-56
2024/01/30 06:55:52;;;;;;;37.70;16.50;;;;;;;0.74;77.76;102366.00;104990;1290;67308;-56
2024/01/30 06:58:38;;;;;;;32.60;16.80;;;;;;;0.73;77.75;102361.69;104958;1289;75125;-55
2024/01/30 07:01:29;;;;;;;;;;;;;;;0.73;77.44;102362.05;104888;1289;60420;-53
2024/01/30 07:04:16;;;;;;;31.80;16.80;;;;;;;0.74;77.55;102364.98;104923;1291;61558;-56
2024/01/30 07:07:02;;;;;;;38.40;17.80;;;;;;;0.73;77.75;102363.92;104707;1291;310564;-57
2024/01/30 07:09:52;;;;;;;;;;;;;;;0.73;77.62;102363.23;105122;1291;68302;-56
2024/01/30 07:12:38;;;;;;;35.00;18.90;;;;;;;0.75;77.85;102365.36;104927;1291;76843;-57
2024/01/30 07:15:25;;;;;;;33.90;17.60;;;;;;;0.77;77.78;102367.52;104937;1290;60363;-57
2024/01/30 07:18:13;;;;;;;38.20;18.70;;;;;;;0.82;78.16;102370.84;104923;1288;60512;-55
2024/01/30 07:20:59;;;;;;;33.90;18.50;;;;;;;0.89;77.78;102371.90;104915;1291;75200;-56
2024/01/30 07:23:45;;;;;;;36.10;16.90;;;;;;;0.94;77.88;102369.24;104980;1289;67245;-54
2024/01/30 07:26:37;;;;;;;31.00;16.70;;;;;;;0.98;77.80;102373.02;104975;1288;72270;-56
2024/01/30 07:29:23;;;;;;;32.40;16.00;;;;;;;1.04;78.02;102375.20;104905;1291;60598;-54
2024/01/30 07:32:09;;;;;;;27.00;15.20;;;;;;;1.11;77.96;102375.39;104986;1288;61699;-55
2024/01/30 07:34:55;;;;;;;27.60;15.80;;;;;;;1.20;77.98;102373.91;104935;1289;73581;-51
2024/01/30 07:37:41;;;;;;;28.20;15.70;;;;;;;1.25;78.24;102369.42;104982;1288;66186;-54
2024/01/30 07:40:28;;;;;;;28.90;15.70;;;;;;;1.31;77.95;102369.23;104927;1290;71336;-51
2024/01/30 07:43:14;;;;;;;27.70;15.20;;;;;;;1.39;78.02;102369.11;104904;1289;60459;-56
2024/01/30 07:46:01;;;;;;;32.80;15.80;;;;;;;1.50;77.92;102373.40;104983;1290;60456;-54
2024/01/30 07:48:48;;;;;;;23.10;13.30;;;;;;;1.61;77.80;102368.81;104976;1289;72092;-56
2024/01/30 07:51:34;;;;;;;34.70;16.20;;;;;;;1.70;77.68;102370.46;104994;1288;67812;-55
2024/01/30 07:54:20;;;;;;;26.70;14.30;;;;;;;1.83;77.69;102371.05;105000;1290;71173;-56
2024/01/30 07:57:07;;;;;;;28.10;15.50;;;;;;;1.96;77.48;102373.73;104980;1289;60507;-54
2024/01/30 07:59:53;;;;;;;;;;;;;;;2.13;77.30;102377.55;104931;1290;61666;-56
2024/01/30 08:02:39;;;;;;;28.20;16.20;;;;;;;2.30;77.25;102374.42;104925;1293;73401;-55
2024/01/30 08:05:25;;;;;;;27.80;15.80;;;;;;;2.46;76.92;102380.95;104950;1289;67188;-54
2024/01/30 08:08:12;;;;;;;26.30;14.50;;;;;;;2.63;77.13;102378.67;104932;1289;70637;-55
2024/01/30 08:10:58;;;;;;;29.00;16.00;;;;;;;2.86;76.50;102378.16;104991;1290;60380;-55
2024/01/30 08:13:44;;;;;;;25.60;14.50;;;;;;;3.10;76.39;102372.15;104980;1288;60392;-54
2024/01/30 08:16:30;;;;;;;27.70;15.10;;;;;;;3.29;76.06;102376.05;104950;1290;75209;-54
2024/01/30 08:19:17;;;;;;;28.80;13.70;;;;;;;3.50;76.33;102375.87;105057;1288;69506;-53
2024/01/30 08:22:03;;;;;;;25.50;13.70;;;;;;;3.56;75.20;102371.05;104916;1289;73961;-53
2024/01/30 08:24:49;;;;;;;;;;;;;;;3.62;74.94;102369.21;104884;1291;60553;-55
2024/01/30 08:27:38;;;;;;;27.80;14.60;;;;;;;3.68;74.82;102366.86;104892;1291;60395;-53
2024/01/30 08:30:24;;;;;;;27.10;13.90;;;;;;;3.73;75.03;102367.08;104886;1290;75344;-55
2024/01/30 08:33:10;;;;;;;27.70;13.80;;;;;;;3.76;74.82;102364.48;104933;1289;69723;-53
2024/01/30 08:35:56;;;;;;;24.20;14.10;;;;;;;3.86;75.37;102363.35;104898;1290;71232;-54
2024/01/30 08:38:43;;;;;;;28.50;14.80;;;;;;;3.90;74.57;102365.02;104925;1288;60681;-54
2024/01/30 08:41:29;;;;;;;24.80;14.20;;;;;;;3.94;74.53;102365.02;106192;1289;58819;-55
2024/01/30 08:44:16;;;;;;;25.40;13.50;;;;;;;3.98;73.88;102359.38;106204;1289;72323;-54
2024/01/30 08:47:03;;;;;;;18.80;12.50;;;;;;;4.05;73.13;102361.36;106130;1291;68518;-55
2024/01/30 08:49:49;;;;;;;23.50;13.10;;;;;;;4.17;74.09;102361.96;105971;1290;71339;-55
2024/01/30 08:52:35;;;;;;;29.40;13.90;;;;;;;4.26;72.72;102366.06;104875;1290;60343;-55
2024/01/30 08:55:21;;;;;;;;;;;;;;;4.39;72.33;102366.54;104968;1291;59302;-55
2024/01/30 08:58:08;;;;;;;32.20;14.90;;;;;;;4.47;72.44;102366.70;104952;1289;73199;-53
2024/01/30 09:00:54;;;;;;;24.00;13.90;;;;;;;4.67;73.90;102365.17;104947;1291;70033;-56
2024/01/30 09:03:42;;;;;;;28.30;14.80;;;;;;;4.89;74.08;102363.73;104978;1291;71151;-55
2024/01/30 09:06:29;;;;;;;25.80;14.80;;;;;;;5.07;72.90;102362.98;104913;1289;60554;-55
2024/01/30 09:09:16;;;;;;;24.50;14.10;;;;;;;5.20;73.54;102361.40;104925;1291;62716;-54
2024/01/30 09:12:06;;;;;;;22.70;14.50;;;;;;;5.40;71.96;102357.95;105852;1290;72512;-54
2024/01/30 09:14:54;;;;;;;25.50;15.00;;;;;;;5.67;72.28;102354.89;104921;1289;67692;-53
2024/01/30 09:17:41;;;;;;;28.10;15.40;;;;;;;5.94;72.33;102354.20;106223;1289;71224;-56
2024/01/30 09:20:27;;;;;;;26.60;14.50;;;;;;;6.33;73.09;102354.16;106167;1289;58287;-57
2024/01/30 09:23:13;;;;;;;30.20;16.00;;;;;;;6.53;73.03;102352.69;105958;1290;60172;-57
2024/01/30 09:25:59;;;;;;;33.40;17.50;;;;;;;6.73;72.48;102353.77;106198;1288;73594;-58
2024/01/30 09:28:45;;;;;;;30.20;17.50;;;;;;;6.79;71.35;102350.13;106211;1291;68457;-57
2024/01/30 09:31:31;;;;;;;26.90;16.70;;;;;;;6.85;70.92;102350.30;106144;1289;71308;-57
2024/01/30 09:34:17;;;;;;;31.70;16.50;;;;;;;6.89;71.06;102349.03;106207;1289;59259;-58
2024/01/30 09:37:03;;;;;;;27.80;15.30;;;;;;;6.81;70.11;102346.77;106216;1290;59376;-57
2024/01/30 09:39:49;;;;;;;24.90;15.60;;;;;;;6.75;70.97;102346.61;106195;1290;71309;-57
2024/01/30 09:42:36;;;;;;;29.30;15.30;;;;;;;6.69;69.63;102348.53;106126;1291;68412;-57
2024/01/30 09:45:23;;;;;;;;;;;;;;;6.57;69.33;102350.59;106154;1289;71794;-57
2024/01/30 09:48:10;;;;;;;27.50;15.50;;;;;;;6.54;70.87;102345.69;106156;1290;58197;-55
2024/01/30 09:50:57;;;;;;;26.20;15.00;;;;;;;6.51;70.55;102344.57;106204;1289;58993;-56
2024/01/30 09:53:44;;;;;;;25.80;14.60;;;;;;;6.58;70.09;102339.84;106201;1289;74066;-56
2024/01/30 09:56:30;;;;;;;25.20;14.80;;;;;;;6.81;70.27;102336.13;106229;1289;67819;-57
2024/01/30 09:59:16;;;;;;;30.30;16.80;;;;;;;6.87;70.19;102331.14;106134;1289;72420;-57
2024/01/30 10:02:04;;;;;;;27.60;15.40;;;;;;;6.97;70.39;102329.20;106195;1290;58199;-58
2024/01/30 10:04:51;;;;;;;28.80;15.20;;;;;;;7.31;70.30;102323.72;106204;1290;59019;-57
2024/01/30 10:07:37;;;;;;;27.90;14.80;;;;;;;7.80;69.48;102326.06;106210;1290;73649;-57
2024/01/30 10:10:24;;;;;;;24.60;14.40;;;;;;;8.13;67.69;102323.87;106232;1289;67308;-57
2024/01/30 10:13:10;;;;;;;25.60;14.40;;;;;;;8.29;67.19;102318.54;106027;1290;72435;-58
2024/01/30 10:15:58;;;;;;;24.50;13.70;;;;;;;8.29;64.27;102314.42;106253;1289;58112;-58
2024/01/30 10:18:44;;;;;;;24.80;14.50;;;;;;;8.34;66.00;102315.70;106194;1289;60467;-58
2024/01/30 10:21:30;;;;;;;23.90;14.30;;;;;;;8.27;65.96;102312.83;106178;1289;72498;-58
2024/01/30 10:24:17;;;;;;;24.60;14.60;;;;;;;8.33;62.67;102310.71;106209;1290;67444;-58
2024/01/30 10:27:05;;;;;;;23.20;15.00;;;;;;;8.32;63.80;102307.77;106226;1290;72315;-57
2024/01/30 10:29:51;;;;;;;24.30;15.50;;;;;;;8.25;64.64;102306.09;106258;1289;58059;-57
2024/01/30 10:32:37;;;;;;;21.30;13.50;;;;;;;8.43;65.84;102298.89;106246;1289;59397;-57
2024/01/30 10:35:23;;;;;;;26.80;15.00;;;;;;;8.61;66.11;102299.25;106219;1289;72362;-58
2024/01/30 10:38:15;;;;;;;26.20;15.50;;;;;;;8.88;65.84;102298.88;106216;1289;67335;-56
2024/01/30 10:41:01;;;;;;;25.60;15.30;;;;;;;9.18;67.43;102296.97;106259;1289;72636;-58
2024/01/30 10:44:03;;;;;;;24.20;14.40;;;;;;;9.50;65.69;102292.48;105526;1290;60355;-57
2024/01/30 10:47:00;;;;;;;24.70;13.70;;;;;;;9.85;63.07;102291.95;106215;1290;59619;-58
2024/01/30 10:49:47;;;;;;;24.10;13.60;;;;;;;10.06;63.97;102288.77;106242;1289;74125;-57
2024/01/30 10:52:33;;;;;;;20.60;13.30;;;;;;;10.01;61.66;102288.53;106250;1291;67154;-58
2024/01/30 10:55:21;;;;;;;23.10;13.90;;;;;;;9.91;61.75;102285.30;106262;1289;71348;-58
2024/01/30 10:58:08;;;;;;;21.40;13.30;;;;;;;10.19;62.99;102285.15;105261;1289;60844;-57
2024/01/30 11:00:55;;;;;;;21.80;13.80;;;;;;;10.36;59.85;102279.35;105037;1291;60360;-56
2024/01/30 11:03:42;;;;;;;23.40;14.20;;;;;;;10.47;60.09;102282.55;105020;1290;72495;-56
2024/01/30 11:06:28;;;;;;;23.10;13.70;;;;;;;10.35;58.73;102278.98;105007;1290;70039;-56
2024/01/30 11:09:17;;;;;;;22.70;13.80;;;;;;;10.55;60.70;102275.39;105039;1291;71306;-56
2024/01/30 11:12:04;;;;;;;22.90;13.10;;;;;;;10.74;58.12;102267.84;104953;1291;59639;-56
2024/01/30 11:15:01;;;;;;;;;;;;;;;10.73;59.31;102268.67;104992;1290;60498;-57
2024/01/30 11:17:53;;;;;;;23.30;13.00;;;;;;;10.97;59.35;102270.28;104929;1290;76502;-56
2024/01/30 11:20:47;;;;;;;21.90;12.50;;;;;;;11.13;56.20;102266.78;104881;1290;70006;-57
2024/01/30 11:23:35;;;;;;;25.30;13.30;;;;;;;11.37;55.14;102264.21;104936;1291;71343;-55
2024/01/30 11:26:28;;;;;;;21.90;13.30;;;;;;;11.81;55.80;102257.23;104925;1291;60308;-57
2024/01/30 11:29:15;;;;;;;22.80;13.30;;;;;;;12.20;56.47;102256.69;104918;1291;60071;-56
2024/01/30 11:32:02;;;;;;;25.70;14.70;;;;;;;12.27;56.93;102252.92;104938;1290;73669;-56
2024/01/30 11:34:49;;;;;;;18.50;13.70;;;;;;;12.26;55.39;102245.48;105001;1290;67281;-57
2024/01/30 11:37:38;;;;;;;25.20;13.90;;;;;;;12.18;54.53;102241.99;105000;1291;71144;-56
2024/01/30 11:40:29;;;;;;;28.10;16.10;;;;;;;12.07;56.22;102242.29;106110;1288;96149;-58
2024/01/30 11:43:17;;;;;;;24.60;14.60;;;;;;;11.95;54.95;102234.98;106168;1291;58972;-58
2024/01/30 11:46:03;;;;;;;24.60;14.30;;;;;;;11.63;55.06;102236.89;106214;1291;73124;-58
2024/01/30 11:48:49;;;;;;;21.60;13.50;;;;;;;11.39;52.55;102228.83;106206;1288;68917;-54
2024/01/30 11:51:35;;;;;;;22.80;13.70;;;;;;;11.57;54.97;102228.91;106203;1289;72061;-58
2024/01/30 11:54:21;;;;;;;21.50;13.60;;;;;;;11.80;52.86;102226.30;106213;1293;58984;-57
2024/01/30 11:57:07;;;;;;;20.10;12.90;;;;;;;11.81;54.26;102221.30;106225;1290;58996;-57
2024/01/30 11:59:53;;;;;;;23.30;14.80;;;;;;;11.90;53.96;102220.65;106248;1290;73186;-57
2024/01/30 12:02:40;;;;;;;24.20;14.40;;;;;;;11.89;52.40;102218.73;106247;1290;67200;-57
2024/01/30 12:05:26;;;;;;;;;;;;;;;11.88;53.24;102214.25;106228;1289;71340;-57
2024/01/30 12:08:16;;;;;;;23.20;14.10;;;;;;;12.24;55.82;102214.00;106229;1288;59079;-56
2024/01/30 12:11:05;;;;;;;25.00;13.30;;;;;;;12.77;51.59;102214.07;105910;1288;59554;-57
2024/01/30 12:13:52;;;;;;;23.00;13.80;;;;;;;12.75;50.76;102214.41;104992;1288;77314;-55
2024/01/30 12:16:38;;;;;;;22.50;14.00;;;;;;;12.74;51.80;102211.64;106235;1292;68086;-57
2024/01/30 12:19:25;;;;;;;26.40;14.50;;;;;;;12.70;51.59;102206.79;106249;1288;72476;-57
2024/01/30 12:22:11;;;;;;;20.30;13.50;;;;;;;12.67;52.88;102204.89;106218;1289;59009;-57
2024/01/30 12:24:57;;;;;;;21.20;14.50;;;;;;;12.96;53.94;102201.08;106270;1288;58900;-57
2024/01/30 12:27:45;;;;;;;24.40;15.00;;;;;;;13.07;50.85;102200.20;106339;1288;73464;-57
2024/01/30 12:30:32;;;;;;;21.80;14.00;;;;;;;13.08;52.51;102195.52;106296;1288;67220;-57
2024/01/30 12:33:18;;;;;;;27.10;15.50;;;;;;;13.25;51.99;102190.67;106284;1289;71169;-58
2024/01/30 12:36:04;;;;;;;23.40;14.50;;;;;;;13.34;49.46;102187.20;106311;1287;59046;-58
2024/01/30 12:38:50;;;;;;;22.50;14.60;;;;;;;13.49;52.80;102189.73;106299;1289;60123;-57
2024/01/30 12:41:37;;;;;;;24.80;14.20;;;;;;;13.65;53.25;102182.05;106150;1288;74524;-57
2024/01/30 12:44:23;;;;;;;28.50;13.90;;;;;;;13.90;53.10;102179.52;106200;1292;67369;-57
2024/01/30 12:47:10;;;;;;;25.30;15.20;;;;;;;13.83;49.63;102176.27;106161;1289;71175;-57